Gibsonton, Florida
Current Conditions -  °F | °C
As of 7:46 PM on Wednesday 24 Dec 2014 (Local Time) from KMCF Reporting Station
Light Rain Light Rain  
Wind Chill: 70°   Ceiling: 4100
Heat Index: 70°   Visibility: 10mi
Dew Point: 70°   Wind: 5mph
Humidity: 100%   Direction: 260°W
Pressure: 29.9"   Gusts: NA
Location:  27.85°N, 82.38°W
Report Text: KMCF 250046Z AUTO 26004KT 10SM -RA BKN041 BKN090 21/21 A2990 RMK AO2 RAE0019B0047
Loading
Personal Weather Stations






























Interactive Weather Map New forecast layout! Learn more

10-Day Weather Forecast

Advertisements
Track Severe Weather on mobile